sensor_id;sensor_type;location;lat;lon;timestamp;temperature;humidity
8778;DHT22;4425;50.872;4.712;2023-01-10T00:02:01;5.80;99.90
8778;DHT22;4425;50.872;4.712;2023-01-10T00:04:30;5.80;99.90
8778;DHT22;4425;50.872;4.712;2023-01-10T00:06:59;5.80;99.90
8778;DHT22;4425;50.872;4.712;2023-01-10T00:09:26;5.80;99.90
8778;DHT22;4425;50.872;4.712;2023-01-10T00:11:53;5.80;99.90
8778;DHT22;4425;50.872;4.712;2023-01-10T00:14:38;5.90;99.90
8778;DHT22;4425;50.872;4.712;2023-01-10T00:17:05;6.00;99.90
8778;DHT22;4425;50.872;4.712;2023-01-10T00:19:34;6.00;99.90
8778;DHT22;4425;50.872;4.712;2023-01-10T00:22:01;6.10;99.90
8778;DHT22;4425;50.872;4.712;2023-01-10T00:24:38;6.10;99.90
8778;DHT22;4425;50.872;4.712;2023-01-10T00:27:07;6.10;99.90
8778;DHT22;4425;50.872;4.712;2023-01-10T00:29:37;6.10;99.90
8778;DHT22;4425;50.872;4.712;2023-01-10T00:32:04;6.20;99.90
8778;DHT22;4425;50.872;4.712;2023-01-10T00:34:33;6.30;99.90
8778;DHT22;4425;50.872;4.712;2023-01-10T00:37:01;6.30;99.90
8778;DHT22;4425;50.872;4.712;2023-01-10T00:39:29;6.40;99.90
8778;DHT22;4425;50.872;4.712;2023-01-10T00:41:56;6.20;99.90
8778;DHT22;4425;50.872;4.712;2023-01-10T00:44:40;6.20;99.90
8778;DHT22;4425;50.872;4.712;2023-01-10T00:47:07;6.10;99.90
8778;DHT22;4425;50.872;4.712;2023-01-10T00:49:38;6.10;99.90
8778;DHT22;4425;50.872;4.712;2023-01-10T00:52:05;6.00;99.90
8778;DHT22;4425;50.872;4.712;2023-01-10T00:54:32;6.00;99.90
8778;DHT22;4425;50.872;4.712;2023-01-10T00:56:59;6.00;99.90
8778;DHT22;4425;50.872;4.712;2023-01-10T00:59:26;5.90;99.90
8778;DHT22;4425;50.872;4.712;2023-01-10T01:01:54;5.90;99.90
8778;DHT22;4425;50.872;4.712;2023-01-10T01:04:21;5.90;99.90
8778;DHT22;4425;50.872;4.712;2023-01-10T01:06:50;5.90;99.90
8778;DHT22;4425;50.872;4.712;2023-01-10T01:09:17;6.00;99.90
8778;DHT22;4425;50.872;4.712;2023-01-10T01:11:44;6.00;99.90
8778;DHT22;4425;50.872;4.712;2023-01-10T01:14:12;5.90;99.90
8778;DHT22;4425;50.872;4.712;2023-01-10T01:16:39;6.00;99.90
8778;DHT22;4425;50.872;4.712;2023-01-10T01:19:06;5.90;99.90
8778;DHT22;4425;50.872;4.712;2023-01-10T01:21:33;6.00;99.90
8778;DHT22;4425;50.872;4.712;2023-01-10T01:24:02;6.00;99.90
8778;DHT22;4425;50.872;4.712;2023-01-10T01:26:29;6.10;99.90
8778;DHT22;4425;50.872;4.712;2023-01-10T01:28:56;6.10;99.90
8778;DHT22;4425;50.872;4.712;2023-01-10T01:31:23;6.30;99.90
8778;DHT22;4425;50.872;4.712;2023-01-10T01:33:50;6.30;99.90
8778;DHT22;4425;50.872;4.712;2023-01-10T01:36:18;6.40;99.90
8778;DHT22;4425;50.872;4.712;2023-01-10T01:38:45;6.40;99.90
8778;DHT22;4425;50.872;4.712;2023-01-10T01:41:13;6.30;99.90
8778;DHT22;4425;50.872;4.712;2023-01-10T01:44:01;6.30;99.90
8778;DHT22;4425;50.872;4.712;2023-01-10T01:46:31;6.30;99.90
8778;DHT22;4425;50.872;4.712;2023-01-10T01:49:00;6.30;99.90
8778;DHT22;4425;50.872;4.712;2023-01-10T01:51:31;6.30;99.90
8778;DHT22;4425;50.872;4.712;2023-01-10T01:54:01;6.30;99.90
8778;DHT22;4425;50.872;4.712;2023-01-10T01:56:38;6.30;99.90
8778;DHT22;4425;50.872;4.712;2023-01-10T01:59:11;6.30;99.90
8778;DHT22;4425;50.872;4.712;2023-01-10T02:01:41;6.20;99.90
8778;DHT22;4425;50.872;4.712;2023-01-10T02:04:12;6.30;99.90
8778;DHT22;4425;50.872;4.712;2023-01-10T02:06:42;6.20;99.90
8778;DHT22;4425;50.872;4.712;2023-01-10T02:09:16;6.10;99.90
8778;DHT22;4425;50.872;4.712;2023-01-10T02:11:46;6.00;99.90
8778;DHT22;4425;50.872;4.712;2023-01-10T02:14:14;6.00;99.90
8778;DHT22;4425;50.872;4.712;2023-01-10T02:16:42;5.90;99.90
8778;DHT22;4425;50.872;4.712;2023-01-10T02:19:17;5.90;99.90
8778;DHT22;4425;50.872;4.712;2023-01-10T02:25:21;5.70;99.90
8778;DHT22;4425;50.872;4.712;2023-01-10T02:28:20;5.70;99.90
8778;DHT22;4425;50.872;4.712;2023-01-10T02:31:15;5.80;99.90
8778;DHT22;4425;50.872;4.712;2023-01-10T02:33:49;5.80;99.90
8778;DHT22;4425;50.872;4.712;2023-01-10T02:36:33;5.80;99.90
8778;DHT22;4425;50.872;4.712;2023-01-10T02:39:09;5.80;99.90
8778;DHT22;4425;50.872;4.712;2023-01-10T02:41:44;5.90;99.90
8778;DHT22;4425;50.872;4.712;2023-01-10T02:44:18;5.90;99.90
8778;DHT22;4425;50.872;4.712;2023-01-10T02:46:47;5.90;99.90
8778;DHT22;4425;50.872;4.712;2023-01-10T02:49:17;5.90;99.90
8778;DHT22;4425;50.872;4.712;2023-01-10T02:51:44;5.90;99.90
8778;DHT22;4425;50.872;4.712;2023-01-10T02:54:14;5.80;99.90
8778;DHT22;4425;50.872;4.712;2023-01-10T02:57:17;5.90;99.90
8778;DHT22;4425;50.872;4.712;2023-01-10T03:00:14;5.80;99.90
8778;DHT22;4425;50.872;4.712;2023-01-10T03:02:56;5.80;99.90
8778;DHT22;4425;50.872;4.712;2023-01-10T03:05:38;5.70;99.90
8778;DHT22;4425;50.872;4.712;2023-01-10T03:08:18;5.70;99.90
8778;DHT22;4425;50.872;4.712;2023-01-10T03:10:51;5.60;99.90
8778;DHT22;4425;50.872;4.712;2023-01-10T03:13:25;5.50;99.90
8778;DHT22;4425;50.872;4.712;2023-01-10T03:15:53;5.60;99.90
8778;DHT22;4425;50.872;4.712;2023-01-10T03:18:26;5.50;99.90
8778;DHT22;4425;50.872;4.712;2023-01-10T03:20:57;5.50;99.90
8778;DHT22;4425;50.872;4.712;2023-01-10T03:23:25;5.40;99.90
8778;DHT22;4425;50.872;4.712;2023-01-10T03:25:55;5.40;99.90
8778;DHT22;4425;50.872;4.712;2023-01-10T03:28:28;5.40;99.90
8778;DHT22;4425;50.872;4.712;2023-01-10T03:31:00;5.40;99.90
8778;DHT22;4425;50.872;4.712;2023-01-10T03:33:30;5.40;99.90
8778;DHT22;4425;50.872;4.712;2023-01-10T03:36:06;5.40;99.90
8778;DHT22;4425;50.872;4.712;2023-01-10T03:38:42;5.50;99.90
8778;DHT22;4425;50.872;4.712;2023-01-10T03:41:14;5.50;99.90
8778;DHT22;4425;50.872;4.712;2023-01-10T03:43:44;5.60;99.90
8778;DHT22;4425;50.872;4.712;2023-01-10T03:46:35;5.50;99.90
8778;DHT22;4425;50.872;4.712;2023-01-10T03:49:04;5.60;99.90
8778;DHT22;4425;50.872;4.712;2023-01-10T03:51:34;5.60;99.90
8778;DHT22;4425;50.872;4.712;2023-01-10T03:54:03;5.60;99.90
8778;DHT22;4425;50.872;4.712;2023-01-10T03:56:30;5.70;99.90
8778;DHT22;4425;50.872;4.712;2023-01-10T03:58:57;5.70;99.90
8778;DHT22;4425;50.872;4.712;2023-01-10T04:01:25;5.70;99.90
8778;DHT22;4425;50.872;4.712;2023-01-10T04:03:53;5.70;99.90
8778;DHT22;4425;50.872;4.712;2023-01-10T04:06:21;5.60;99.90
8778;DHT22;4425;50.872;4.712;2023-01-10T04:08:49;5.60;99.90
8778;DHT22;4425;50.872;4.712;2023-01-10T04:11:16;5.60;99.90
8778;DHT22;4425;50.872;4.712;2023-01-10T04:13:43;5.50;99.90
8778;DHT22;4425;50.872;4.712;2023-01-10T04:16:13;5.40;99.90
8778;DHT22;4425;50.872;4.712;2023-01-10T04:18:40;5.30;99.90
8778;DHT22;4425;50.872;4.712;2023-01-10T04:21:07;5.20;99.90
8778;DHT22;4425;50.872;4.712;2023-01-10T04:23:34;5.10;99.90
8778;DHT22;4425;50.872;4.712;2023-01-10T04:26:04;5.10;99.90
8778;DHT22;4425;50.872;4.712;2023-01-10T04:28:31;5.00;99.90
8778;DHT22;4425;50.872;4.712;2023-01-10T04:30:58;5.00;99.90
8778;DHT22;4425;50.872;4.712;2023-01-10T04:33:25;4.90;99.90
8778;DHT22;4425;50.872;4.712;2023-01-10T04:35:53;4.90;99.90
8778;DHT22;4425;50.872;4.712;2023-01-10T04:38:20;4.80;99.90
8778;DHT22;4425;50.872;4.712;2023-01-10T04:40:51;4.80;99.90
8778;DHT22;4425;50.872;4.712;2023-01-10T04:43:21;4.80;99.90
8778;DHT22;4425;50.872;4.712;2023-01-10T04:45:48;4.70;99.90
8778;DHT22;4425;50.872;4.712;2023-01-10T04:48:15;4.80;99.90
8778;DHT22;4425;50.872;4.712;2023-01-10T04:50:48;4.80;99.90
8778;DHT22;4425;50.872;4.712;2023-01-10T04:53:15;4.70;99.90
8778;DHT22;4425;50.872;4.712;2023-01-10T04:55:42;4.70;99.90
8778;DHT22;4425;50.872;4.712;2023-01-10T04:58:11;4.60;99.90
8778;DHT22;4425;50.872;4.712;2023-01-10T05:00:40;4.70;99.90
8778;DHT22;4425;50.872;4.712;2023-01-10T05:03:07;4.60;99.90
8778;DHT22;4425;50.872;4.712;2023-01-10T05:05:34;4.60;99.90
8778;DHT22;4425;50.872;4.712;2023-01-10T05:08:04;4.50;99.90
8778;DHT22;4425;50.872;4.712;2023-01-10T05:10:32;4.50;99.90
8778;DHT22;4425;50.872;4.712;2023-01-10T05:13:01;4.50;99.90
8778;DHT22;4425;50.872;4.712;2023-01-10T05:15:29;4.50;99.90
8778;DHT22;4425;50.872;4.712;2023-01-10T05:17:59;4.50;99.90
8778;DHT22;4425;50.872;4.712;2023-01-10T05:20:26;4.50;99.90
8778;DHT22;4425;50.872;4.712;2023-01-10T05:22:53;4.50;99.90
8778;DHT22;4425;50.872;4.712;2023-01-10T05:25:20;4.50;99.90
8778;DHT22;4425;50.872;4.712;2023-01-10T05:27:47;4.50;99.90
8778;DHT22;4425;50.872;4.712;2023-01-10T05:30:14;4.50;99.90
8778;DHT22;4425;50.872;4.712;2023-01-10T05:32:41;4.50;99.90
8778;DHT22;4425;50.872;4.712;2023-01-10T05:35:10;4.50;99.90
8778;DHT22;4425;50.872;4.712;2023-01-10T05:37:37;4.50;99.90
8778;DHT22;4425;50.872;4.712;2023-01-10T05:40:05;4.60;99.90
8778;DHT22;4425;50.872;4.712;2023-01-10T05:42:33;4.60;99.90
8778;DHT22;4425;50.872;4.712;2023-01-10T05:45:00;4.60;99.90
8778;DHT22;4425;50.872;4.712;2023-01-10T05:47:28;4.60;99.90
8778;DHT22;4425;50.872;4.712;2023-01-10T05:49:55;4.50;99.90
8778;DHT22;4425;50.872;4.712;2023-01-10T05:52:24;4.50;99.90
8778;DHT22;4425;50.872;4.712;2023-01-10T05:54:51;4.50;99.90
8778;DHT22;4425;50.872;4.712;2023-01-10T05:57:18;4.50;99.90
8778;DHT22;4425;50.872;4.712;2023-01-10T05:59:47;4.50;99.90
8778;DHT22;4425;50.872;4.712;2023-01-10T06:02:14;4.50;99.90
8778;DHT22;4425;50.872;4.712;2023-01-10T06:04:41;4.50;99.90
8778;DHT22;4425;50.872;4.712;2023-01-10T06:07:09;4.60;99.90
8778;DHT22;4425;50.872;4.712;2023-01-10T06:09:39;4.60;99.90
8778;DHT22;4425;50.872;4.712;2023-01-10T06:12:27;4.50;99.90
8778;DHT22;4425;50.872;4.712;2023-01-10T06:15:09;4.50;99.90
8778;DHT22;4425;50.872;4.712;2023-01-10T06:17:37;4.50;99.90
8778;DHT22;4425;50.872;4.712;2023-01-10T06:20:08;4.50;99.90
8778;DHT22;4425;50.872;4.712;2023-01-10T06:22:41;4.50;99.90
8778;DHT22;4425;50.872;4.712;2023-01-10T06:25:12;4.50;99.90
8778;DHT22;4425;50.872;4.712;2023-01-10T06:27:40;4.50;99.90
8778;DHT22;4425;50.872;4.712;2023-01-10T06:30:11;4.40;99.90
8778;DHT22;4425;50.872;4.712;2023-01-10T06:32:39;4.40;99.90
8778;DHT22;4425;50.872;4.712;2023-01-10T06:35:08;4.40;99.90
8778;DHT22;4425;50.872;4.712;2023-01-10T06:37:35;4.40;99.90
8778;DHT22;4425;50.872;4.712;2023-01-10T06:40:04;4.40;99.90
8778;DHT22;4425;50.872;4.712;2023-01-10T06:42:33;4.40;99.90
8778;DHT22;4425;50.872;4.712;2023-01-10T06:45:00;4.40;99.90
8778;DHT22;4425;50.872;4.712;2023-01-10T06:47:27;4.40;99.90
8778;DHT22;4425;50.872;4.712;2023-01-10T06:49:54;4.40;99.90
8778;DHT22;4425;50.872;4.712;2023-01-10T06:52:21;4.40;99.90
8778;DHT22;4425;50.872;4.712;2023-01-10T06:54:48;4.30;99.90
8778;DHT22;4425;50.872;4.712;2023-01-10T06:57:17;4.30;99.90
8778;DHT22;4425;50.872;4.712;2023-01-10T06:59:50;4.30;99.90
8778;DHT22;4425;50.872;4.712;2023-01-10T07:02:17;4.30;99.90
8778;DHT22;4425;50.872;4.712;2023-01-10T07:04:44;4.30;99.90
8778;DHT22;4425;50.872;4.712;2023-01-10T07:07:13;4.30;99.90
8778;DHT22;4425;50.872;4.712;2023-01-10T07:09:40;4.30;99.90
8778;DHT22;4425;50.872;4.712;2023-01-10T07:12:07;4.30;99.90
8778;DHT22;4425;50.872;4.712;2023-01-10T07:14:34;4.30;99.90
8778;DHT22;4425;50.872;4.712;2023-01-10T07:17:03;4.40;99.90
8778;DHT22;4425;50.872;4.712;2023-01-10T07:19:30;4.40;99.90
8778;DHT22;4425;50.872;4.712;2023-01-10T07:21:57;4.30;99.90
8778;DHT22;4425;50.872;4.712;2023-01-10T07:24:24;4.30;99.90
8778;DHT22;4425;50.872;4.712;2023-01-10T07:26:53;4.40;99.90
8778;DHT22;4425;50.872;4.712;2023-01-10T07:29:20;4.40;99.90
8778;DHT22;4425;50.872;4.712;2023-01-10T07:31:47;4.30;99.90
8778;DHT22;4425;50.872;4.712;2023-01-10T07:34:16;4.40;99.90
8778;DHT22;4425;50.872;4.712;2023-01-10T07:36:43;4.40;99.90
8778;DHT22;4425;50.872;4.712;2023-01-10T07:39:12;4.40;99.90
8778;DHT22;4425;50.872;4.712;2023-01-10T07:41:39;4.40;99.90
8778;DHT22;4425;50.872;4.712;2023-01-10T07:44:06;4.40;99.90
8778;DHT22;4425;50.872;4.712;2023-01-10T07:46:33;4.40;99.90
8778;DHT22;4425;50.872;4.712;2023-01-10T07:49:01;4.40;99.90
8778;DHT22;4425;50.872;4.712;2023-01-10T07:51:29;4.40;99.90
8778;DHT22;4425;50.872;4.712;2023-01-10T07:53:57;4.50;99.90
8778;DHT22;4425;50.872;4.712;2023-01-10T07:56:24;4.50;99.90
8778;DHT22;4425;50.872;4.712;2023-01-10T07:58:51;4.50;99.90
8778;DHT22;4425;50.872;4.712;2023-01-10T08:01:19;4.50;99.90
8778;DHT22;4425;50.872;4.712;2023-01-10T08:03:49;4.50;99.90
8778;DHT22;4425;50.872;4.712;2023-01-10T08:06:16;4.60;99.90
8778;DHT22;4425;50.872;4.712;2023-01-10T08:08:45;4.60;99.90
8778;DHT22;4425;50.872;4.712;2023-01-10T08:11:12;4.70;99.90
8778;DHT22;4425;50.872;4.712;2023-01-10T08:13:39;4.70;99.90
8778;DHT22;4425;50.872;4.712;2023-01-10T08:16:07;4.80;99.90
8778;DHT22;4425;50.872;4.712;2023-01-10T08:18:34;4.80;99.90
8778;DHT22;4425;50.872;4.712;2023-01-10T08:21:03;4.90;99.90
8778;DHT22;4425;50.872;4.712;2023-01-10T08:23:30;4.90;99.90
8778;DHT22;4425;50.872;4.712;2023-01-10T08:26:00;5.10;99.90
8778;DHT22;4425;50.872;4.712;2023-01-10T08:28:28;5.10;99.90
8778;DHT22;4425;50.872;4.712;2023-01-10T08:30:55;5.10;99.90
8778;DHT22;4425;50.872;4.712;2023-01-10T08:33:23;5.20;99.90
8778;DHT22;4425;50.872;4.712;2023-01-10T08:35:51;5.20;99.90
8778;DHT22;4425;50.872;4.712;2023-01-10T08:38:18;5.30;99.90
8778;DHT22;4425;50.872;4.712;2023-01-10T08:40:45;5.30;99.90
8778;DHT22;4425;50.872;4.712;2023-01-10T08:43:14;5.30;99.90
8778;DHT22;4425;50.872;4.712;2023-01-10T08:45:41;5.40;99.90
8778;DHT22;4425;50.872;4.712;2023-01-10T08:48:09;5.50;99.90
8778;DHT22;4425;50.872;4.712;2023-01-10T08:50:38;5.50;99.90
8778;DHT22;4425;50.872;4.712;2023-01-10T08:53:06;5.50;99.90
8778;DHT22;4425;50.872;4.712;2023-01-10T08:55:33;5.50;99.90
8778;DHT22;4425;50.872;4.712;2023-01-10T08:58:01;5.50;99.90
8778;DHT22;4425;50.872;4.712;2023-01-10T09:00:30;5.60;99.90
8778;DHT22;4425;50.872;4.712;2023-01-10T09:02:57;5.50;99.90
8778;DHT22;4425;50.872;4.712;2023-01-10T09:05:24;5.60;99.90
8778;DHT22;4425;50.872;4.712;2023-01-10T09:07:52;5.60;99.90
8778;DHT22;4425;50.872;4.712;2023-01-10T09:10:24;5.60;99.90
8778;DHT22;4425;50.872;4.712;2023-01-10T09:12:51;5.70;99.90
8778;DHT22;4425;50.872;4.712;2023-01-10T09:15:24;5.70;99.90
8778;DHT22;4425;50.872;4.712;2023-01-10T09:17:54;5.70;99.90
8778;DHT22;4425;50.872;4.712;2023-01-10T09:20:23;5.70;99.90
8778;DHT22;4425;50.872;4.712;2023-01-10T09:22:52;5.70;99.90
8778;DHT22;4425;50.872;4.712;2023-01-10T09:25:19;5.80;99.90
8778;DHT22;4425;50.872;4.712;2023-01-10T09:27:46;5.80;99.90
8778;DHT22;4425;50.872;4.712;2023-01-10T09:30:17;5.90;99.90
8778;DHT22;4425;50.872;4.712;2023-01-10T09:32:48;5.90;99.90
8778;DHT22;4425;50.872;4.712;2023-01-10T09:35:17;6.00;99.90
8778;DHT22;4425;50.872;4.712;2023-01-10T09:37:44;6.00;99.90
8778;DHT22;4425;50.872;4.712;2023-01-10T09:40:13;6.00;99.90
8778;DHT22;4425;50.872;4.712;2023-01-10T09:42:54;6.10;99.90
8778;DHT22;4425;50.872;4.712;2023-01-10T09:45:30;6.10;99.90
8778;DHT22;4425;50.872;4.712;2023-01-10T09:48:04;6.20;99.90
8778;DHT22;4425;50.872;4.712;2023-01-10T09:50:42;6.20;99.90
8778;DHT22;4425;50.872;4.712;2023-01-10T09:53:13;6.20;99.90
8778;DHT22;4425;50.872;4.712;2023-01-10T09:55:41;6.20;99.90
8778;DHT22;4425;50.872;4.712;2023-01-10T09:58:12;6.30;99.90
8778;DHT22;4425;50.872;4.712;2023-01-10T10:00:43;6.40;99.90
8778;DHT22;4425;50.872;4.712;2023-01-10T10:03:28;6.50;99.90
8778;DHT22;4425;50.872;4.712;2023-01-10T10:05:59;6.80;99.90
8778;DHT22;4425;50.872;4.712;2023-01-10T10:08:26;7.20;99.90
8778;DHT22;4425;50.872;4.712;2023-01-10T10:11:03;7.20;99.90
8778;DHT22;4425;50.872;4.712;2023-01-10T10:13:43;7.20;99.90
8778;DHT22;4425;50.872;4.712;2023-01-10T10:16:23;7.10;99.90
8778;DHT22;4425;50.872;4.712;2023-01-10T10:19:00;7.10;99.90
8778;DHT22;4425;50.872;4.712;2023-01-10T10:21:37;7.00;99.90
8778;DHT22;4425;50.872;4.712;2023-01-10T10:24:17;7.00;99.90
8778;DHT22;4425;50.872;4.712;2023-01-10T10:26:51;7.00;99.90
8778;DHT22;4425;50.872;4.712;2023-01-10T10:29:55;7.00;99.90
8778;DHT22;4425;50.872;4.712;2023-01-10T10:35:26;7.00;99.90
8778;DHT22;4425;50.872;4.712;2023-01-10T10:38:04;7.00;99.90
8778;DHT22;4425;50.872;4.712;2023-01-10T10:40:37;7.10;99.90
8778;DHT22;4425;50.872;4.712;2023-01-10T10:43:15;7.10;99.90
8778;DHT22;4425;50.872;4.712;2023-01-10T10:45:49;7.10;99.90
8778;DHT22;4425;50.872;4.712;2023-01-10T10:48:22;7.10;99.90
8778;DHT22;4425;50.872;4.712;2023-01-10T10:51:02;7.10;99.90
8778;DHT22;4425;50.872;4.712;2023-01-10T10:53:34;7.20;99.90
8778;DHT22;4425;50.872;4.712;2023-01-10T10:56:03;7.20;99.90
8778;DHT22;4425;50.872;4.712;2023-01-10T10:58:31;7.20;99.90
8778;DHT22;4425;50.872;4.712;2023-01-10T11:00:59;7.30;99.90
8778;DHT22;4425;50.872;4.712;2023-01-10T11:03:34;7.30;99.90
8778;DHT22;4425;50.872;4.712;2023-01-10T11:06:05;7.30;99.90
8778;DHT22;4425;50.872;4.712;2023-01-10T11:08:36;7.30;99.90
8778;DHT22;4425;50.872;4.712;2023-01-10T11:11:14;7.40;99.90
8778;DHT22;4425;50.872;4.712;2023-01-10T11:13:45;7.40;99.90
8778;DHT22;4425;50.872;4.712;2023-01-10T11:16:23;7.50;99.90
8778;DHT22;4425;50.872;4.712;2023-01-10T11:21:55;7.40;99.90
8778;DHT22;4425;50.872;4.712;2023-01-10T11:24:26;7.40;99.90
8778;DHT22;4425;50.872;4.712;2023-01-10T11:26:55;7.40;99.90
8778;DHT22;4425;50.872;4.712;2023-01-10T11:29:26;7.40;99.90
8778;DHT22;4425;50.872;4.712;2023-01-10T11:31:55;7.40;99.90
8778;DHT22;4425;50.872;4.712;2023-01-10T11:34:25;7.40;99.90
8778;DHT22;4425;50.872;4.712;2023-01-10T11:36:57;7.40;99.90
8778;DHT22;4425;50.872;4.712;2023-01-10T11:39:27;7.50;99.90
8778;DHT22;4425;50.872;4.712;2023-01-10T11:41:54;7.40;99.90
8778;DHT22;4425;50.872;4.712;2023-01-10T11:44:27;7.40;99.90
8778;DHT22;4425;50.872;4.712;2023-01-10T11:47:00;7.50;99.90
8778;DHT22;4425;50.872;4.712;2023-01-10T11:49:33;7.50;99.90
8778;DHT22;4425;50.872;4.712;2023-01-10T11:52:04;7.50;99.90
8778;DHT22;4425;50.872;4.712;2023-01-10T11:54:35;7.60;99.90
8778;DHT22;4425;50.872;4.712;2023-01-10T11:57:06;7.60;99.90
8778;DHT22;4425;50.872;4.712;2023-01-10T11:59:33;7.70;99.90
8778;DHT22;4425;50.872;4.712;2023-01-10T12:02:03;7.70;99.90
8778;DHT22;4425;50.872;4.712;2023-01-10T12:04:41;7.70;99.90
8778;DHT22;4425;50.872;4.712;2023-01-10T12:07:11;7.80;99.90
8778;DHT22;4425;50.872;4.712;2023-01-10T12:09:41;7.80;99.90
8778;DHT22;4425;50.872;4.712;2023-01-10T12:12:18;7.90;99.90
8778;DHT22;4425;50.872;4.712;2023-01-10T12:14:45;7.90;99.90
8778;DHT22;4425;50.872;4.712;2023-01-10T12:17:24;8.00;99.90
8778;DHT22;4425;50.872;4.712;2023-01-10T12:19:53;8.00;99.90
8778;DHT22;4425;50.872;4.712;2023-01-10T12:22:29;8.00;99.90
8778;DHT22;4425;50.872;4.712;2023-01-10T12:25:08;8.10;99.90
8778;DHT22;4425;50.872;4.712;2023-01-10T12:27:40;8.10;99.90
8778;DHT22;4425;50.872;4.712;2023-01-10T12:30:13;8.10;99.90
8778;DHT22;4425;50.872;4.712;2023-01-10T12:32:45;8.10;99.90
8778;DHT22;4425;50.872;4.712;2023-01-10T12:35:20;8.10;99.90
8778;DHT22;4425;50.872;4.712;2023-01-10T12:37:52;8.10;99.90
8778;DHT22;4425;50.872;4.712;2023-01-10T12:40:32;8.10;99.90
8778;DHT22;4425;50.872;4.712;2023-01-10T12:43:11;8.10;99.90
8778;DHT22;4425;50.872;4.712;2023-01-10T12:46:01;8.10;99.90
8778;DHT22;4425;50.872;4.712;2023-01-10T12:48:39;8.00;99.90
8778;DHT22;4425;50.872;4.712;2023-01-10T12:51:14;8.00;99.90
8778;DHT22;4425;50.872;4.712;2023-01-10T12:53:46;8.00;99.90
8778;DHT22;4425;50.872;4.712;2023-01-10T12:56:16;8.00;99.90
8778;DHT22;4425;50.872;4.712;2023-01-10T12:58:46;8.00;99.90
8778;DHT22;4425;50.872;4.712;2023-01-10T13:01:15;7.90;99.90
8778;DHT22;4425;50.872;4.712;2023-01-10T13:03:44;7.90;99.90
8778;DHT22;4425;50.872;4.712;2023-01-10T13:06:29;8.00;99.90
8778;DHT22;4425;50.872;4.712;2023-01-10T13:08:58;7.90;99.90
8778;DHT22;4425;50.872;4.712;2023-01-10T13:11:31;7.90;99.90
8778;DHT22;4425;50.872;4.712;2023-01-10T13:14:03;7.80;99.90
8778;DHT22;4425;50.872;4.712;2023-01-10T13:16:38;7.80;99.90
8778;DHT22;4425;50.872;4.712;2023-01-10T13:19:23;7.80;99.90
8778;DHT22;4425;50.872;4.712;2023-01-10T13:22:11;7.70;99.90
8778;DHT22;4425;50.872;4.712;2023-01-10T13:24:54;7.70;99.90
8778;DHT22;4425;50.872;4.712;2023-01-10T13:27:28;7.60;99.90
8778;DHT22;4425;50.872;4.712;2023-01-10T13:29:58;7.60;99.90
8778;DHT22;4425;50.872;4.712;2023-01-10T13:32:28;7.60;99.90
8778;DHT22;4425;50.872;4.712;2023-01-10T13:35:10;7.50;99.90
8778;DHT22;4425;50.872;4.712;2023-01-10T13:37:41;7.40;99.90
8778;DHT22;4425;50.872;4.712;2023-01-10T13:40:19;7.40;99.90
8778;DHT22;4425;50.872;4.712;2023-01-10T13:55:28;7.20;99.90
8778;DHT22;4425;50.872;4.712;2023-01-10T13:58:00;7.20;99.90
8778;DHT22;4425;50.872;4.712;2023-01-10T14:00:44;7.20;99.90
8778;DHT22;4425;50.872;4.712;2023-01-10T14:03:50;7.20;99.90
8778;DHT22;4425;50.872;4.712;2023-01-10T14:09:38;7.20;99.90
8778;DHT22;4425;50.872;4.712;2023-01-10T14:12:24;7.10;99.90
8778;DHT22;4425;50.872;4.712;2023-01-10T14:15:01;7.10;99.90
8778;DHT22;4425;50.872;4.712;2023-01-10T14:17:29;7.10;99.90
8778;DHT22;4425;50.872;4.712;2023-01-10T14:20:20;7.10;99.90
8778;DHT22;4425;50.872;4.712;2023-01-10T14:23:04;7.10;99.90
8778;DHT22;4425;50.872;4.712;2023-01-10T14:25:34;7.10;99.90
8778;DHT22;4425;50.872;4.712;2023-01-10T14:28:02;7.00;99.90
8778;DHT22;4425;50.872;4.712;2023-01-10T14:30:32;7.00;99.90
8778;DHT22;4425;50.872;4.712;2023-01-10T14:33:03;7.00;99.90
8778;DHT22;4425;50.872;4.712;2023-01-10T14:35:38;7.00;99.90
8778;DHT22;4425;50.872;4.712;2023-01-10T14:38:15;7.00;99.90
8778;DHT22;4425;50.872;4.712;2023-01-10T14:40:47;7.00;99.90
8778;DHT22;4425;50.872;4.712;2023-01-10T14:43:19;7.00;99.90
8778;DHT22;4425;50.872;4.712;2023-01-10T14:45:52;6.90;99.90
8778;DHT22;4425;50.872;4.712;2023-01-10T14:48:27;7.00;99.90
8778;DHT22;4425;50.872;4.712;2023-01-10T14:51:17;6.90;99.90
8778;DHT22;4425;50.872;4.712;2023-01-10T14:53:46;6.90;99.90
8778;DHT22;4425;50.872;4.712;2023-01-10T14:56:19;6.90;99.90
8778;DHT22;4425;50.872;4.712;2023-01-10T14:58:48;6.90;99.90
8778;DHT22;4425;50.872;4.712;2023-01-10T15:01:21;6.90;99.90
8778;DHT22;4425;50.872;4.712;2023-01-10T15:03:50;6.90;99.90
8778;DHT22;4425;50.872;4.712;2023-01-10T15:06:23;6.90;99.90
8778;DHT22;4425;50.872;4.712;2023-01-10T15:08:58;7.00;99.90
8778;DHT22;4425;50.872;4.712;2023-01-10T15:11:27;7.00;99.90
8778;DHT22;4425;50.872;4.712;2023-01-10T15:13:59;7.00;99.90
8778;DHT22;4425;50.872;4.712;2023-01-10T15:16:29;7.00;99.90
8778;DHT22;4425;50.872;4.712;2023-01-10T15:18:58;7.00;99.90
8778;DHT22;4425;50.872;4.712;2023-01-10T15:21:28;7.00;99.90
8778;DHT22;4425;50.872;4.712;2023-01-10T15:23:56;7.00;99.90
8778;DHT22;4425;50.872;4.712;2023-01-10T15:26:27;7.00;99.90
8778;DHT22;4425;50.872;4.712;2023-01-10T15:29:10;6.90;99.90
8778;DHT22;4425;50.872;4.712;2023-01-10T15:31:39;6.90;99.90
8778;DHT22;4425;50.872;4.712;2023-01-10T15:34:10;6.90;99.90
8778;DHT22;4425;50.872;4.712;2023-01-10T15:36:44;6.90;99.90
8778;DHT22;4425;50.872;4.712;2023-01-10T15:39:19;6.90;99.90
8778;DHT22;4425;50.872;4.712;2023-01-10T15:41:48;6.90;99.90
8778;DHT22;4425;50.872;4.712;2023-01-10T15:44:21;6.90;99.90
8778;DHT22;4425;50.872;4.712;2023-01-10T15:46:56;6.90;99.90
8778;DHT22;4425;50.872;4.712;2023-01-10T15:49:23;7.00;99.90
8778;DHT22;4425;50.872;4.712;2023-01-10T15:51:52;7.00;99.90
8778;DHT22;4425;50.872;4.712;2023-01-10T15:54:30;6.90;99.90
8778;DHT22;4425;50.872;4.712;2023-01-10T15:57:06;6.90;99.90
8778;DHT22;4425;50.872;4.712;2023-01-10T15:59:35;6.90;99.90
8778;DHT22;4425;50.872;4.712;2023-01-10T16:02:19;6.90;99.90
8778;DHT22;4425;50.872;4.712;2023-01-10T16:04:48;6.90;99.90
8778;DHT22;4425;50.872;4.712;2023-01-10T16:07:21;6.90;99.90
8778;DHT22;4425;50.872;4.712;2023-01-10T16:09:55;7.00;99.90
8778;DHT22;4425;50.872;4.712;2023-01-10T16:12:30;7.00;99.90
8778;DHT22;4425;50.872;4.712;2023-01-10T16:15:20;7.00;99.90
8778;DHT22;4425;50.872;4.712;2023-01-10T16:17:48;7.10;99.90
8778;DHT22;4425;50.872;4.712;2023-01-10T16:20:18;7.10;99.90
8778;DHT22;4425;50.872;4.712;2023-01-10T16:22:48;7.10;99.90
8778;DHT22;4425;50.872;4.712;2023-01-10T16:25:17;7.10;99.90
8778;DHT22;4425;50.872;4.712;2023-01-10T16:27:45;7.10;99.90
8778;DHT22;4425;50.872;4.712;2023-01-10T16:30:24;7.20;99.90
8778;DHT22;4425;50.872;4.712;2023-01-10T16:32:51;7.20;99.90
8778;DHT22;4425;50.872;4.712;2023-01-10T16:35:19;7.20;99.90
8778;DHT22;4425;50.872;4.712;2023-01-10T16:37:48;7.20;99.90
8778;DHT22;4425;50.872;4.712;2023-01-10T16:40:18;7.30;99.90
8778;DHT22;4425;50.872;4.712;2023-01-10T16:42:46;7.30;99.90
8778;DHT22;4425;50.872;4.712;2023-01-10T16:45:32;7.30;99.90
8778;DHT22;4425;50.872;4.712;2023-01-10T16:48:00;7.40;99.90
8778;DHT22;4425;50.872;4.712;2023-01-10T16:50:27;7.40;99.90
8778;DHT22;4425;50.872;4.712;2023-01-10T16:52:57;7.40;99.90
8778;DHT22;4425;50.872;4.712;2023-01-10T16:55:35;7.40;99.90
8778;DHT22;4425;50.872;4.712;2023-01-10T16:58:03;7.40;99.90
8778;DHT22;4425;50.872;4.712;2023-01-10T17:00:30;7.50;99.90
8778;DHT22;4425;50.872;4.712;2023-01-10T17:02:58;7.60;99.90
8778;DHT22;4425;50.872;4.712;2023-01-10T17:05:27;7.60;99.90
8778;DHT22;4425;50.872;4.712;2023-01-10T17:08:00;7.60;99.90
8778;DHT22;4425;50.872;4.712;2023-01-10T17:10:29;7.70;99.90